Milanville, Pennsylvania
Current Conditions -  °F | °C
As of 5:15 PM on Monday 26 Jan 2015 (Local Time) from KMSV Reporting Station
Overcast Overcast  
Wind Chill:   Ceiling: 2800
Heat Index: 18°   Visibility: 5mi
Dew Point: 14°   Wind: 13mph
Humidity: 86%   Direction: 90°E
Pressure: 29.82"   Gusts: 21mph
Location:  41.67°N, 75.07°W
Report Text: KMSV 262215Z AUTO 09011G18KT 5SM FEW013 OVC028 M08/M10 A2982 RMK AO1
Loading
Personal Weather Stations






























Interactive Weather Map New forecast layout! Learn more

10-Day Weather Forecast

Advertisements
Track Severe Weather on mobile